Univ of Ark at Fayetteville, Arkansas
Current Conditions -  °F | °C
As of 4:53 PM on Saturday 20 Dec 2014 (Local Time) from KFYV Reporting Station
Overcast Overcast  
Wind Chill: 38°   Ceiling: 2100
Heat Index: 42°   Visibility: 10mi
Dew Point: 35°   Wind: 7mph
Humidity: 76%   Direction: 200°SSW
Pressure: 30.19"   Gusts: NA
Location:  35.9902°N, 94.083°W
Report Text: KFYV 202253Z AUTO 20006KT 10SM OVC021 06/02 A3019 RMK AO2 SLP227 T00560017
Loading
Personal Weather Stations






























Interactive Weather Map New forecast layout! Learn more

10-Day Weather Forecast

Advertisements
Track Severe Weather on mobile